sensor_id;sensor_type;location;lat;lon;timestamp;pressure;altitude;pressure_sealevel;temperature;humidity
72086;BME280;64750;52.134;5.424;2023-05-16T00:01:23;102110.91;;;11.16;70.25
72086;BME280;64750;52.134;5.424;2023-05-16T00:03:50;102119.88;;;11.11;70.23
72086;BME280;64750;52.134;5.424;2023-05-16T00:06:16;102114.94;;;11.03;70.64
72086;BME280;64750;52.134;5.424;2023-05-16T00:08:43;102113.03;;;11.07;70.47
72086;BME280;64750;52.134;5.424;2023-05-16T00:11:09;102119.97;;;11.09;70.80
72086;BME280;64750;52.134;5.424;2023-05-16T00:13:36;102121.34;;;11.18;70.65
72086;BME280;64750;52.134;5.424;2023-05-16T00:16:02;102129.31;;;11.16;70.57
72086;BME280;64750;52.134;5.424;2023-05-16T00:18:29;102122.19;;;11.19;70.40
72086;BME280;64750;52.134;5.424;2023-05-16T00:20:56;102123.25;;;11.14;70.42
72086;BME280;64750;52.134;5.424;2023-05-16T00:23:22;102131.84;;;10.97;70.89
72086;BME280;64750;52.134;5.424;2023-05-16T00:25:49;102124.94;;;10.95;71.30
72086;BME280;64750;52.134;5.424;2023-05-16T00:28:15;102127.38;;;10.99;70.88
72086;BME280;64750;52.134;5.424;2023-05-16T00:30:42;102121.50;;;10.93;71.29
72086;BME280;64750;52.134;5.424;2023-05-16T00:33:08;102117.72;;;11.00;71.38
72086;BME280;64750;52.134;5.424;2023-05-16T00:35:34;102119.44;;;11.01;71.10
72086;BME280;64750;52.134;5.424;2023-05-16T00:38:01;102108.50;;;10.90;71.26
72086;BME280;64750;52.134;5.424;2023-05-16T00:40:27;102119.06;;;10.88;71.02
72086;BME280;64750;52.134;5.424;2023-05-16T00:42:54;102132.72;;;10.76;71.38
72086;BME280;64750;52.134;5.424;2023-05-16T00:45:21;102124.34;;;10.66;71.59
72086;BME280;64750;52.134;5.424;2023-05-16T00:47:47;102128.75;;;10.65;71.55
72086;BME280;64750;52.134;5.424;2023-05-16T00:50:14;102129.78;;;10.61;71.75
72086;BME280;64750;52.134;5.424;2023-05-16T00:52:41;102132.91;;;10.71;71.91
72086;BME280;64750;52.134;5.424;2023-05-16T00:55:08;102131.81;;;10.77;71.67
72086;BME280;64750;52.134;5.424;2023-05-16T00:57:37;102128.50;;;10.72;71.25
72086;BME280;64750;52.134;5.424;2023-05-16T01:00:07;102133.28;;;10.62;71.79
72086;BME280;64750;52.134;5.424;2023-05-16T01:02:37;102124.41;;;10.64;71.75
72086;BME280;64750;52.134;5.424;2023-05-16T01:05:04;102130.34;;;10.70;71.56
72086;BME280;64750;52.134;5.424;2023-05-16T01:07:48;102123.50;;;10.65;71.52
72086;BME280;64750;52.134;5.424;2023-05-16T01:10:14;102124.47;;;10.63;71.32
72086;BME280;64750;52.134;5.424;2023-05-16T01:15:11;102131.91;;;10.52;71.25
72086;BME280;64750;52.134;5.424;2023-05-16T01:17:52;102129.72;;;10.63;71.29
72086;BME280;64750;52.134;5.424;2023-05-16T01:25:55;102135.16;;;10.58;70.84
72086;BME280;64750;52.134;5.424;2023-05-16T01:28:23;102139.38;;;10.62;70.60
72086;BME280;64750;52.134;5.424;2023-05-16T01:30:51;102140.59;;;10.54;70.39
72086;BME280;64750;52.134;5.424;2023-05-16T01:33:17;102139.28;;;10.42;70.93
72086;BME280;64750;52.134;5.424;2023-05-16T01:39:01;102139.53;;;10.36;71.09
72086;BME280;64750;52.134;5.424;2023-05-16T01:42:00;102139.53;;;10.36;71.24
72086;BME280;64750;52.134;5.424;2023-05-16T01:47:00;102134.72;;;10.47;71.13
72086;BME280;64750;52.134;5.424;2023-05-16T01:49:35;102140.59;;;10.54;70.83
72086;BME280;64750;52.134;5.424;2023-05-16T01:52:07;102144.50;;;10.43;70.77
72086;BME280;64750;52.134;5.424;2023-05-16T01:54:38;102145.31;;;10.45;70.65
72086;BME280;64750;52.134;5.424;2023-05-16T01:57:08;102145.47;;;10.41;70.57
72086;BME280;64750;52.134;5.424;2023-05-16T01:59:36;102149.88;;;10.40;70.67
72086;BME280;64750;52.134;5.424;2023-05-16T02:02:03;102146.66;;;10.32;70.46
72086;BME280;64750;52.134;5.424;2023-05-16T02:04:30;102147.63;;;10.29;70.37
72086;BME280;64750;52.134;5.424;2023-05-16T02:06:57;102157.47;;;10.24;70.98
72086;BME280;64750;52.134;5.424;2023-05-16T02:09:25;102148.72;;;10.24;70.84
72086;BME280;64750;52.134;5.424;2023-05-16T02:11:51;102156.88;;;10.16;70.97
72086;BME280;64750;52.134;5.424;2023-05-16T02:14:18;102159.84;;;10.30;71.09
72086;BME280;64750;52.134;5.424;2023-05-16T02:16:44;102153.88;;;10.27;70.77
72086;BME280;64750;52.134;5.424;2023-05-16T02:19:11;102165.97;;;10.31;70.55
72086;BME280;64750;52.134;5.424;2023-05-16T02:21:38;102162.44;;;10.32;70.77
72086;BME280;64750;52.134;5.424;2023-05-16T02:24:04;102162.66;;;10.26;70.65
72086;BME280;64750;52.134;5.424;2023-05-16T02:26:31;102165.38;;;10.23;70.84
72086;BME280;64750;52.134;5.424;2023-05-16T02:28:57;102167.91;;;10.26;70.84
72086;BME280;64750;52.134;5.424;2023-05-16T02:31:25;102166.31;;;10.22;70.92
72086;BME280;64750;52.134;5.424;2023-05-16T02:33:52;102164.59;;;10.21;70.91
72086;BME280;64750;52.134;5.424;2023-05-16T02:36:18;102168.94;;;10.22;70.67
72086;BME280;64750;52.134;5.424;2023-05-16T02:38:46;102169.34;;;10.11;71.24
72086;BME280;64750;52.134;5.424;2023-05-16T02:41:12;102175.22;;;10.17;71.09
72086;BME280;64750;52.134;5.424;2023-05-16T02:43:38;102172.50;;;10.21;71.15
72086;BME280;64750;52.134;5.424;2023-05-16T02:48:49;102172.19;;;10.05;71.07
72086;BME280;64750;52.134;5.424;2023-05-16T02:51:15;102172.78;;;10.13;71.29
72086;BME280;64750;52.134;5.424;2023-05-16T02:53:42;102173.84;;;10.07;71.45
72086;BME280;64750;52.134;5.424;2023-05-16T02:56:08;102176.69;;;10.01;71.39
72086;BME280;64750;52.134;5.424;2023-05-16T02:58:35;102179.44;;;9.98;71.62
72086;BME280;64750;52.134;5.424;2023-05-16T03:01:02;102186.63;;;9.93;71.84
72086;BME280;64750;52.134;5.424;2023-05-16T03:03:28;102180.13;;;10.03;71.98
72086;BME280;64750;52.134;5.424;2023-05-16T03:05:55;102177.16;;;10.12;71.70
72086;BME280;64750;52.134;5.424;2023-05-16T03:08:21;102185.84;;;10.14;71.41
72086;BME280;64750;52.134;5.424;2023-05-16T03:10:48;102188.13;;;10.00;71.61
72086;BME280;64750;52.134;5.424;2023-05-16T03:13:14;102188.00;;;10.03;71.69
72086;BME280;64750;52.134;5.424;2023-05-16T03:15:41;102180.75;;;10.10;71.63
72086;BME280;64750;52.134;5.424;2023-05-16T03:18:07;102187.78;;;10.09;71.69
72086;BME280;64750;52.134;5.424;2023-05-16T03:20:34;102193.88;;;10.10;71.53
72086;BME280;64750;52.134;5.424;2023-05-16T03:23:01;102192.34;;;10.04;71.65
72086;BME280;64750;52.134;5.424;2023-05-16T03:25:27;102196.56;;;10.08;71.66
72086;BME280;64750;52.134;5.424;2023-05-16T03:27:54;102196.91;;;9.99;71.62
72086;BME280;64750;52.134;5.424;2023-05-16T03:30:20;102197.13;;;9.93;71.79
72086;BME280;64750;52.134;5.424;2023-05-16T03:32:47;102196.28;;;9.92;71.85
72086;BME280;64750;52.134;5.424;2023-05-16T03:35:14;102198.09;;;9.90;71.78
72086;BME280;64750;52.134;5.424;2023-05-16T03:37:40;102202.38;;;9.93;71.87
72086;BME280;64750;52.134;5.424;2023-05-16T03:40:07;102201.53;;;9.92;71.76
72086;BME280;64750;52.134;5.424;2023-05-16T03:42:34;102197.47;;;9.83;71.59
72086;BME280;64750;52.134;5.424;2023-05-16T03:45:01;102202.50;;;9.90;71.54
72086;BME280;64750;52.134;5.424;2023-05-16T03:47:27;102200.66;;;9.92;71.42
72086;BME280;64750;52.134;5.424;2023-05-16T03:49:56;102211.97;;;9.94;71.51
72086;BME280;64750;52.134;5.424;2023-05-16T03:52:23;102203.97;;;9.97;71.29
72086;BME280;64750;52.134;5.424;2023-05-16T03:54:49;102211.06;;;9.95;71.27
72086;BME280;64750;52.134;5.424;2023-05-16T03:57:15;102211.84;;;9.97;71.02
72086;BME280;64750;52.134;5.424;2023-05-16T03:59:42;102211.91;;;9.95;71.00
72086;BME280;64750;52.134;5.424;2023-05-16T04:02:08;102217.31;;;9.91;70.84
72086;BME280;64750;52.134;5.424;2023-05-16T04:04:35;102214.94;;;9.84;70.66
72086;BME280;64750;52.134;5.424;2023-05-16T04:07:01;102221.16;;;9.82;71.13
72086;BME280;64750;52.134;5.424;2023-05-16T04:09:28;102222.56;;;9.91;70.86
72086;BME280;64750;52.134;5.424;2023-05-16T04:11:54;102220.88;;;9.90;70.98
72086;BME280;64750;52.134;5.424;2023-05-16T04:14:22;102220.88;;;9.90;70.86
72086;BME280;64750;52.134;5.424;2023-05-16T04:16:49;102216.75;;;9.82;70.74
72086;BME280;64750;52.134;5.424;2023-05-16T04:19:15;102225.53;;;9.81;70.90
72086;BME280;64750;52.134;5.424;2023-05-16T04:21:42;102227.03;;;9.89;70.92
72086;BME280;64750;52.134;5.424;2023-05-16T04:24:08;102223.50;;;9.90;71.10
72086;BME280;64750;52.134;5.424;2023-05-16T04:26:35;102221.09;;;9.83;70.77
72086;BME280;64750;52.134;5.424;2023-05-16T04:29:02;102230.13;;;9.75;70.91
72086;BME280;64750;52.134;5.424;2023-05-16T04:31:29;102232.72;;;9.76;70.80
72086;BME280;64750;52.134;5.424;2023-05-16T04:33:56;102237.16;;;9.74;71.06
72086;BME280;64750;52.134;5.424;2023-05-16T04:36:23;102236.91;;;9.82;71.48
72086;BME280;64750;52.134;5.424;2023-05-16T04:38:49;102244.59;;;9.87;71.60
72086;BME280;64750;52.134;5.424;2023-05-16T04:41:16;102242.88;;;9.85;71.20
72086;BME280;64750;52.134;5.424;2023-05-16T04:43:43;102242.78;;;9.89;71.51
72086;BME280;64750;52.134;5.424;2023-05-16T04:46:09;102248.13;;;9.85;71.37
72086;BME280;64750;52.134;5.424;2023-05-16T04:48:35;102249.06;;;9.84;71.58
72086;BME280;64750;52.134;5.424;2023-05-16T04:51:02;102249.84;;;9.87;71.54
72086;BME280;64750;52.134;5.424;2023-05-16T04:53:28;102258.81;;;9.81;71.73
72086;BME280;64750;52.134;5.424;2023-05-16T04:55:55;102262.56;;;9.74;71.44
72086;BME280;64750;52.134;5.424;2023-05-16T04:58:21;102260.31;;;9.63;71.59
72086;BME280;64750;52.134;5.424;2023-05-16T05:00:53;102265.44;;;9.66;72.01
72086;BME280;64750;52.134;5.424;2023-05-16T05:03:20;102262.06;;;9.62;72.08
72086;BME280;64750;52.134;5.424;2023-05-16T05:05:47;102259.38;;;9.64;72.57
72086;BME280;64750;52.134;5.424;2023-05-16T05:08:13;102263.63;;;9.68;72.61
72086;BME280;64750;52.134;5.424;2023-05-16T05:10:40;102262.00;;;9.64;72.28
72086;BME280;64750;52.134;5.424;2023-05-16T05:13:07;102261.97;;;9.65;72.35
72086;BME280;64750;52.134;5.424;2023-05-16T05:15:33;102266.44;;;9.62;72.65
72086;BME280;64750;52.134;5.424;2023-05-16T05:17:59;102265.63;;;9.60;72.91
72086;BME280;64750;52.134;5.424;2023-05-16T05:20:26;102262.22;;;9.58;72.54
72086;BME280;64750;52.134;5.424;2023-05-16T05:22:52;102266.41;;;9.63;72.86
72086;BME280;64750;52.134;5.424;2023-05-16T05:25:19;102270.81;;;9.63;72.74
72086;BME280;64750;52.134;5.424;2023-05-16T05:27:45;102280.09;;;9.73;72.83
72086;BME280;64750;52.134;5.424;2023-05-16T05:30:12;102271.13;;;9.79;72.87
72086;BME280;64750;52.134;5.424;2023-05-16T05:32:38;102281.50;;;9.83;72.63
72086;BME280;64750;52.134;5.424;2023-05-16T05:35:05;102284.91;;;9.85;72.29
72086;BME280;64750;52.134;5.424;2023-05-16T05:37:32;102287.53;;;9.85;72.58
72086;BME280;64750;52.134;5.424;2023-05-16T05:39:59;102281.38;;;9.87;72.58
72086;BME280;64750;52.134;5.424;2023-05-16T05:42:25;102278.94;;;9.80;72.67
72086;BME280;64750;52.134;5.424;2023-05-16T05:44:52;102295.41;;;9.85;72.44
72086;BME280;64750;52.134;5.424;2023-05-16T05:47:18;102284.81;;;9.89;72.59
72086;BME280;64750;52.134;5.424;2023-05-16T05:49:44;102291.69;;;9.93;72.88
72086;BME280;64750;52.134;5.424;2023-05-16T05:52:11;102288.19;;;9.92;72.41
72086;BME280;64750;52.134;5.424;2023-05-16T05:54:37;102287.19;;;9.96;73.01
72086;BME280;64750;52.134;5.424;2023-05-16T05:57:04;102286.16;;;10.00;72.67
72086;BME280;64750;52.134;5.424;2023-05-16T05:59:30;102299.41;;;9.97;72.03
72086;BME280;64750;52.134;5.424;2023-05-16T06:01:57;102295.00;;;9.98;72.18
72086;BME280;64750;52.134;5.424;2023-05-16T06:04:24;102306.25;;;10.01;72.09
72086;BME280;64750;52.134;5.424;2023-05-16T06:06:51;102305.38;;;10.01;71.96
72086;BME280;64750;52.134;5.424;2023-05-16T06:09:17;102305.19;;;10.07;71.48
72086;BME280;64750;52.134;5.424;2023-05-16T06:11:43;102313.88;;;10.09;71.43
72086;BME280;64750;52.134;5.424;2023-05-16T06:14:11;102315.47;;;10.13;70.94
72086;BME280;64750;52.134;5.424;2023-05-16T06:16:37;102309.25;;;10.16;71.18
72086;BME280;64750;52.134;5.424;2023-05-16T06:19:05;102310.03;;;10.20;70.76
72086;BME280;64750;52.134;5.424;2023-05-16T06:21:32;102325.66;;;10.23;70.57
72086;BME280;64750;52.134;5.424;2023-05-16T06:23:58;102329.22;;;10.22;70.75
72086;BME280;64750;52.134;5.424;2023-05-16T06:26:24;102315.28;;;10.20;70.40
72086;BME280;64750;52.134;5.424;2023-05-16T06:28:51;102318.66;;;10.23;70.60
72086;BME280;64750;52.134;5.424;2023-05-16T06:31:17;102325.38;;;10.32;70.72
72086;BME280;64750;52.134;5.424;2023-05-16T06:33:44;102323.53;;;10.34;70.57
72086;BME280;64750;52.134;5.424;2023-05-16T06:36:11;102327.38;;;10.24;69.78
72086;BME280;64750;52.134;5.424;2023-05-16T06:38:37;102326.50;;;10.25;69.91
72086;BME280;64750;52.134;5.424;2023-05-16T06:41:03;102321.09;;;10.29;70.29
72086;BME280;64750;52.134;5.424;2023-05-16T06:43:30;102320.97;;;10.32;70.02
72086;BME280;64750;52.134;5.424;2023-05-16T06:45:56;102327.06;;;10.33;69.49
72086;BME280;64750;52.134;5.424;2023-05-16T06:48:22;102322.75;;;10.32;68.95
72086;BME280;64750;52.134;5.424;2023-05-16T06:50:49;102322.53;;;10.38;69.32
72086;BME280;64750;52.134;5.424;2023-05-16T06:53:18;102314.66;;;10.38;69.14
72086;BME280;64750;52.134;5.424;2023-05-16T06:55:46;102323.53;;;10.34;68.94
72086;BME280;64750;52.134;5.424;2023-05-16T06:58:13;102329.34;;;10.44;69.49
72086;BME280;64750;52.134;5.424;2023-05-16T07:00:39;102330.00;;;10.50;69.45
72086;BME280;64750;52.134;5.424;2023-05-16T07:03:06;102331.59;;;10.55;68.66
72086;BME280;64750;52.134;5.424;2023-05-16T07:05:33;102319.94;;;10.62;69.44
72086;BME280;64750;52.134;5.424;2023-05-16T07:08:00;102322.13;;;10.74;69.15
72086;BME280;64750;52.134;5.424;2023-05-16T07:10:26;102335.91;;;10.81;68.71
72086;BME280;64750;52.134;5.424;2023-05-16T07:12:53;102332.25;;;10.85;68.11
72086;BME280;64750;52.134;5.424;2023-05-16T07:15:20;102330.59;;;10.82;68.15
72086;BME280;64750;52.134;5.424;2023-05-16T07:17:47;102328.75;;;10.85;67.73
72086;BME280;64750;52.134;5.424;2023-05-16T07:20:13;102329.69;;;10.83;67.56
72086;BME280;64750;52.134;5.424;2023-05-16T07:22:40;102330.22;;;10.92;68.28
72086;BME280;64750;52.134;5.424;2023-05-16T07:25:07;102339.69;;;10.97;67.94
72086;BME280;64750;52.134;5.424;2023-05-16T07:27:38;102335.25;;;10.98;67.08
72086;BME280;64750;52.134;5.424;2023-05-16T07:30:08;102339.69;;;10.97;66.72
72086;BME280;64750;52.134;5.424;2023-05-16T07:32:35;102337.97;;;10.96;65.49
72086;BME280;64750;52.134;5.424;2023-05-16T07:35:01;102344.97;;;10.96;66.16
72086;BME280;64750;52.134;5.424;2023-05-16T07:37:27;102337.97;;;10.96;66.69
72086;BME280;64750;52.134;5.424;2023-05-16T07:39:56;102333.66;;;10.94;66.44
72086;BME280;64750;52.134;5.424;2023-05-16T07:42:23;102335.25;;;10.98;66.62
72086;BME280;64750;52.134;5.424;2023-05-16T07:44:49;102331.59;;;11.02;66.76
72086;BME280;64750;52.134;5.424;2023-05-16T07:47:16;102331.72;;;10.99;66.29
72086;BME280;64750;52.134;5.424;2023-05-16T07:49:42;102336.25;;;10.95;65.76
72086;BME280;64750;52.134;5.424;2023-05-16T07:52:09;102344.19;;;10.94;66.13
72086;BME280;64750;52.134;5.424;2023-05-16T07:54:36;102344.97;;;10.96;65.88
72086;BME280;64750;52.134;5.424;2023-05-16T07:57:02;102340.44;;;11.01;66.34
72086;BME280;64750;52.134;5.424;2023-05-16T07:59:29;102352.41;;;11.08;66.82
72086;BME280;64750;52.134;5.424;2023-05-16T08:01:56;102361.13;;;11.10;66.73
72086;BME280;64750;52.134;5.424;2023-05-16T08:04:22;102371.06;;;11.02;70.24
72086;BME280;64750;52.134;5.424;2023-05-16T08:06:49;102362.16;;;10.82;72.34
72086;BME280;64750;52.134;5.424;2023-05-16T08:09:15;102365.06;;;10.75;73.74
72086;BME280;64750;52.134;5.424;2023-05-16T08:11:42;102367.97;;;10.67;74.40
72086;BME280;64750;52.134;5.424;2023-05-16T08:14:10;102373.34;;;10.64;75.05
72086;BME280;64750;52.134;5.424;2023-05-16T08:16:37;102370.88;;;10.59;74.89
72086;BME280;64750;52.134;5.424;2023-05-16T08:19:03;102365.47;;;10.64;75.56
72086;BME280;64750;52.134;5.424;2023-05-16T08:21:30;102362.38;;;10.76;76.02
72086;BME280;64750;52.134;5.424;2023-05-16T08:23:57;102355.16;;;10.81;74.70
72086;BME280;64750;52.134;5.424;2023-05-16T08:26:23;102360.94;;;10.91;76.04
72086;BME280;64750;52.134;5.424;2023-05-16T08:28:50;102352.66;;;11.02;76.01
72086;BME280;64750;52.134;5.424;2023-05-16T08:31:16;102355.84;;;11.10;74.75
72086;BME280;64750;52.134;5.424;2023-05-16T08:33:43;102351.97;;;11.21;74.16
72086;BME280;64750;52.134;5.424;2023-05-16T08:36:09;102345.13;;;11.39;74.33
72086;BME280;64750;52.134;5.424;2023-05-16T08:38:36;102344.66;;;11.49;74.32
72086;BME280;64750;52.134;5.424;2023-05-16T08:41:02;102342.53;;;11.59;71.36
72086;BME280;64750;52.134;5.424;2023-05-16T08:43:29;102339.72;;;11.64;70.75
72086;BME280;64750;52.134;5.424;2023-05-16T08:45:55;102356.31;;;11.66;70.00
72086;BME280;64750;52.134;5.424;2023-05-16T08:48:22;102345.47;;;11.52;67.41
72086;BME280;64750;52.134;5.424;2023-05-16T08:50:49;102350.19;;;11.43;66.95
72086;BME280;64750;52.134;5.424;2023-05-16T08:53:21;102343.47;;;11.36;67.74
72086;BME280;64750;52.134;5.424;2023-05-16T08:55:48;102342.28;;;11.43;68.48
72086;BME280;64750;52.134;5.424;2023-05-16T08:58:16;102335.69;;;11.55;66.44
72086;BME280;64750;52.134;5.424;2023-05-16T09:00:43;102336.88;;;11.69;66.57
72086;BME280;64750;52.134;5.424;2023-05-16T09:03:09;102337.44;;;11.77;65.48
72086;BME280;64750;52.134;5.424;2023-05-16T09:05:37;102339.56;;;11.89;63.38
72086;BME280;64750;52.134;5.424;2023-05-16T09:08:03;102349.88;;;11.95;64.01
72086;BME280;64750;52.134;5.424;2023-05-16T09:10:30;102345.56;;;11.93;62.96
72086;BME280;64750;52.134;5.424;2023-05-16T09:12:56;102355.25;;;11.92;63.43
72086;BME280;64750;52.134;5.424;2023-05-16T09:15:30;102353.38;;;11.96;63.85
72086;BME280;64750;52.134;5.424;2023-05-16T09:17:59;102367.22;;;12.01;61.86
72086;BME280;64750;52.134;5.424;2023-05-16T09:20:26;102357.47;;;12.03;58.92
72086;BME280;64750;52.134;5.424;2023-05-16T09:22:57;102361.00;;;12.02;59.91
72086;BME280;64750;52.134;5.424;2023-05-16T09:25:28;102367.16;;;12.03;58.47
72086;BME280;64750;52.134;5.424;2023-05-16T09:27:58;102356.41;;;12.07;57.18
72086;BME280;64750;52.134;5.424;2023-05-16T09:30:31;102358.78;;;12.13;58.44
72086;BME280;64750;52.134;5.424;2023-05-16T09:32:59;102355.75;;;12.23;58.71
72086;BME280;64750;52.134;5.424;2023-05-16T09:35:26;102357.09;;;12.33;58.09
72086;BME280;64750;52.134;5.424;2023-05-16T09:37:55;102352.31;;;12.41;56.51
72086;BME280;64750;52.134;5.424;2023-05-16T09:40:22;102362.63;;;12.47;54.51
72086;BME280;64750;52.134;5.424;2023-05-16T09:43:04;102355.53;;;12.48;54.16
72086;BME280;64750;52.134;5.424;2023-05-16T09:45:32;102349.84;;;12.57;55.49
72086;BME280;64750;52.134;5.424;2023-05-16T09:48:10;102345.13;;;12.66;56.34
72086;BME280;64750;52.134;5.424;2023-05-16T09:50:46;102356.09;;;12.75;56.74
72086;BME280;64750;52.134;5.424;2023-05-16T09:53:14;102360.09;;;12.84;58.29
72086;BME280;64750;52.134;5.424;2023-05-16T09:55:40;102362.34;;;12.93;57.63
72086;BME280;64750;52.134;5.424;2023-05-16T09:58:07;102356.41;;;12.88;55.43
72086;BME280;64750;52.134;5.424;2023-05-16T10:00:33;102347.19;;;12.97;53.44
72086;BME280;64750;52.134;5.424;2023-05-16T10:03:01;102335.00;;;12.94;54.64
72086;BME280;64750;52.134;5.424;2023-05-16T10:05:31;102353.44;;;12.96;53.50
72086;BME280;64750;52.134;5.424;2023-05-16T10:07:58;102345.63;;;13.12;55.11
72086;BME280;64750;52.134;5.424;2023-05-16T10:10:25;102351.63;;;13.16;56.33
72086;BME280;64750;52.134;5.424;2023-05-16T10:12:53;102344.06;;;13.08;56.82
72086;BME280;64750;52.134;5.424;2023-05-16T10:15:24;102356.56;;;13.04;55.90
72086;BME280;64750;52.134;5.424;2023-05-16T10:17:52;102345.19;;;13.02;55.13
72086;BME280;64750;52.134;5.424;2023-05-16T10:20:22;102353.75;;;13.07;51.75
72086;BME280;64750;52.134;5.424;2023-05-16T10:22:51;102360.13;;;13.03;53.25
72086;BME280;64750;52.134;5.424;2023-05-16T10:25:28;102359.28;;;13.03;53.36
72086;BME280;64750;52.134;5.424;2023-05-16T10:27:56;102356.13;;;13.13;53.36
72086;BME280;64750;52.134;5.424;2023-05-16T10:30:24;102349.13;;;13.12;54.13
72086;BME280;64750;52.134;5.424;2023-05-16T10:32:52;102352.84;;;13.08;56.25
72086;BME280;64750;52.134;5.424;2023-05-16T10:35:19;102355.63;;;13.05;55.66
72086;BME280;64750;52.134;5.424;2023-05-16T10:37:47;102362.69;;;13.05;56.01
72086;BME280;64750;52.134;5.424;2023-05-16T10:40:15;102352.72;;;13.11;54.96
72086;BME280;64750;52.134;5.424;2023-05-16T10:43:05;102361.75;;;13.25;54.23
72086;BME280;64750;52.134;5.424;2023-05-16T10:45:33;102353.06;;;13.23;54.80
72086;BME280;64750;52.134;5.424;2023-05-16T10:48:02;102362.84;;;13.21;56.06
72086;BME280;64750;52.134;5.424;2023-05-16T10:53:19;102356.28;;;13.10;56.82
72086;BME280;64750;52.134;5.424;2023-05-16T11:04:08;102350.72;;;13.17;56.39
72086;BME280;64750;52.134;5.424;2023-05-16T11:17:29;102353.28;;;13.18;54.74
72086;BME280;64750;52.134;5.424;2023-05-16T11:20:03;102364.03;;;13.13;54.40
72086;BME280;64750;52.134;5.424;2023-05-16T11:22:32;102359.28;;;13.03;51.85
72086;BME280;64750;52.134;5.424;2023-05-16T11:27:41;102348.78;;;13.01;53.88
72086;BME280;64750;52.134;5.424;2023-05-16T11:32:37;102361.34;;;12.96;54.26
72086;BME280;64750;52.134;5.424;2023-05-16T11:35:05;102364.09;;;12.93;54.06
72086;BME280;64750;52.134;5.424;2023-05-16T11:37:34;102357.53;;;12.83;54.10
72086;BME280;64750;52.134;5.424;2023-05-16T11:40:05;102373.53;;;12.79;54.52
72086;BME280;64750;52.134;5.424;2023-05-16T11:42:35;102375.25;;;12.80;55.49
72086;BME280;64750;52.134;5.424;2023-05-16T11:45:10;102374.16;;;12.85;55.89
72086;BME280;64750;52.134;5.424;2023-05-16T11:47:39;102377.44;;;12.90;56.26
72086;BME280;64750;52.134;5.424;2023-05-16T11:50:15;102376.38;;;12.94;56.03
72086;BME280;64750;52.134;5.424;2023-05-16T11:52:46;102378.81;;;12.99;56.21
72086;BME280;64750;52.134;5.424;2023-05-16T11:55:15;102378.03;;;12.96;55.88
72086;BME280;64750;52.134;5.424;2023-05-16T11:57:59;102387.22;;;12.88;56.42
72086;BME280;64750;52.134;5.424;2023-05-16T12:00:26;102385.09;;;12.75;56.76
72086;BME280;64750;52.134;5.424;2023-05-16T12:02:58;102381.78;;;12.72;56.44
72086;BME280;64750;52.134;5.424;2023-05-16T12:05:26;102384.34;;;12.73;56.91
72086;BME280;64750;52.134;5.424;2023-05-16T12:07:54;102378.88;;;12.78;57.91
72086;BME280;64750;52.134;5.424;2023-05-16T12:10:21;102382.44;;;12.77;57.98
72086;BME280;64750;52.134;5.424;2023-05-16T12:12:49;102381.56;;;12.76;58.14
72086;BME280;64750;52.134;5.424;2023-05-16T12:15:18;102388.94;;;12.89;56.36
72086;BME280;64750;52.134;5.424;2023-05-16T12:17:45;102384.50;;;12.89;57.27
72086;BME280;64750;52.134;5.424;2023-05-16T12:20:13;102387.84;;;12.93;56.61
72086;BME280;64750;52.134;5.424;2023-05-16T12:22:43;102379.94;;;12.93;57.11
72086;BME280;64750;52.134;5.424;2023-05-16T12:25:26;102383.38;;;12.95;57.19
72086;BME280;64750;52.134;5.424;2023-05-16T12:27:54;102376.22;;;12.97;57.40
72086;BME280;64750;52.134;5.424;2023-05-16T12:30:25;102385.22;;;12.93;57.71
72086;BME280;64750;52.134;5.424;2023-05-16T12:32:57;102391.28;;;12.95;58.55
72086;BME280;64750;52.134;5.424;2023-05-16T12:35:25;102378.28;;;12.90;58.03
72086;BME280;64750;52.134;5.424;2023-05-16T12:37:55;102383.50;;;12.92;59.04
72086;BME280;64750;52.134;5.424;2023-05-16T12:40:22;102386.00;;;12.95;58.18
72086;BME280;64750;52.134;5.424;2023-05-16T12:42:58;102390.38;;;12.96;59.28
72086;BME280;64750;52.134;5.424;2023-05-16T12:45:27;102386.09;;;12.93;59.43
72086;BME280;64750;52.134;5.424;2023-05-16T12:47:54;102388.56;;;12.96;60.61
72086;BME280;64750;52.134;5.424;2023-05-16T12:50:21;102389.16;;;13.03;60.69
72086;BME280;64750;52.134;5.424;2023-05-16T12:52:52;102385.44;;;13.07;60.58
72086;BME280;64750;52.134;5.424;2023-05-16T12:55:21;102383.75;;;13.06;60.26
72086;BME280;64750;52.134;5.424;2023-05-16T12:57:48;102380.50;;;13.00;59.63
72086;BME280;64750;52.134;5.424;2023-05-16T13:00:17;102392.38;;;12.91;60.81
72086;BME280;64750;52.134;5.424;2023-05-16T13:02:44;102389.84;;;12.88;60.11
72086;BME280;64750;52.134;5.424;2023-05-16T13:05:12;102390.78;;;12.87;59.59
72086;BME280;64750;52.134;5.424;2023-05-16T13:07:38;102393.41;;;12.87;58.83
72086;BME280;64750;52.134;5.424;2023-05-16T13:10:07;102396.34;;;12.80;58.34
72086;BME280;64750;52.134;5.424;2023-05-16T13:12:36;102386.72;;;12.79;58.43
72086;BME280;64750;52.134;5.424;2023-05-16T13:15:04;102400.31;;;12.89;59.59
72086;BME280;64750;52.134;5.424;2023-05-16T13:17:33;102391.94;;;13.00;59.48
72086;BME280;64750;52.134;5.424;2023-05-16T13:20:02;102395.72;;;13.13;58.26
72086;BME280;64750;52.134;5.424;2023-05-16T13:22:35;102395.88;;;13.10;58.36
72086;BME280;64750;52.134;5.424;2023-05-16T13:25:03;102399.44;;;13.09;58.27
72086;BME280;64750;52.134;5.424;2023-05-16T13:27:30;102398.78;;;13.04;57.38
72086;BME280;64750;52.134;5.424;2023-05-16T13:29:57;102391.28;;;12.95;58.22
72086;BME280;64750;52.134;5.424;2023-05-16T13:32:24;102395.56;;;12.98;58.58
72086;BME280;64750;52.134;5.424;2023-05-16T13:34:51;102392.28;;;12.92;58.40
72086;BME280;64750;52.134;5.424;2023-05-16T13:37:17;102398.50;;;12.91;59.38
72086;BME280;64750;52.134;5.424;2023-05-16T13:39:44;102395.19;;;12.86;58.96